PWSweather.com
Personal Weather Stations
Station Observations
KMAMEDFI2
Medfield, MA 02052

Medfield, MA 02052

Lat: 42.1900822, Lon: -71.3296889

Elevation: 138

Station Type: Rainwise WS MK-III

http://www.medfieldweather.com

Latest ConditionsUpdated 11:30:00 PM EDT Sunday, May 19, 2019
Currently Today's Max Today's Min Today's Average
Temperature 65.6°F18.7°C 73.5°F23.1°C 47.1°F8.4°C 60.4°F15.8°C
Dew Point 65.0°F18.3°C 65.0°F18.3°C 46.3°F7.9°C 54.7°F12.6°C
Winds 3.5 mph S5.6 kmh S 8.1 mph -13.0 kmh - - 2.7 mph 4.3 kmh
Wind Gusts 6.9 mph11.1 kmh 16.1 mph25.9 kmh - -
Humidity 98% 98% 59% 83%
Pressure 30.01 in1016.3 mb 30.19 in1022.4 mb 30.01 in1016.3 mb -
Precipitation - 0.01 in0.3 mm - -
Hour Temp Dew Point Humidity Winds Wind Gusts Pressure Precip Precip Rate Daily Precip Total
11:30 PM 65.6°F18.7°C 65.0°F18.3°C 98% 3.5 mph S5.6 kmh S 6.9 mph11.1 kmh 30.01 in1016.3 mb - 0.00 in0.0 mm 0.01 in0.3 mm
11:20 PM 65.4°F18.6°C 64.8°F18.2°C 98% 3.5 mph S5.6 kmh S 6.9 mph11.1 kmh 30.01 in1016.3 mb - 0.00 in0.0 mm 0.01 in0.3 mm
11:10 PM 65.3°F18.5°C 64.7°F18.2°C 98% 4.6 mph SSE7.4 kmh SSE 5.8 mph9.3 kmh 30.01 in1016.3 mb - 0.00 in0.0 mm 0.01 in0.3 mm
11:00 PM 65.1°F18.4°C 64.2°F17.9°C 97% 3.5 mph S5.6 kmh S 8.1 mph13.0 kmh 30.01 in1016.3 mb - 0.00 in0.0 mm 0.01 in0.3 mm
10:50 PM 65.0°F18.3°C 64.1°F17.8°C 97% 2.3 mph SE3.7 kmh SE 3.5 mph5.6 kmh 30.01 in1016.3 mb - 0.00 in0.0 mm 0.01 in0.3 mm
10:40 PM 65.0°F18.3°C 63.8°F17.7°C 96% 4.6 mph SSE7.4 kmh SSE 8.1 mph13.0 kmh 30.01 in1016.3 mb - 0.00 in0.0 mm 0.01 in0.3 mm
10:30 PM 64.9°F18.3°C 63.7°F17.6°C 96% 1.2 mph ESE1.9 kmh ESE 2.3 mph3.7 kmh 30.01 in1016.3 mb - 0.00 in0.0 mm 0.01 in0.3 mm
10:20 PM 64.9°F18.3°C 63.7°F17.6°C 96% 4.6 mph SSW7.4 kmh SSW 8.1 mph13.0 kmh 30.01 in1016.3 mb - 0.00 in0.0 mm 0.01 in0.3 mm
10:10 PM 64.9°F18.3°C 63.4°F17.4°C 95% 2.3 mph NW3.7 kmh NW 2.3 mph3.7 kmh 30.01 in1016.3 mb - 0.00 in0.0 mm 0.01 in0.3 mm
10:00 PM 64.9°F18.3°C 63.4°F17.4°C 95% 3.5 mph SSW5.6 kmh SSW 8.1 mph13.0 kmh 30.01 in1016.3 mb - 0.00 in0.0 mm 0.01 in0.3 mm
09:50 PM 64.9°F18.3°C 63.4°F17.4°C 95% 3.5 mph SE5.6 kmh SE 3.5 mph5.6 kmh 30.01 in1016.3 mb - 0.00 in0.0 mm 0.01 in0.3 mm
09:40 PM 64.6°F18.1°C 62.5°F16.9°C 93% 3.5 mph W5.6 kmh W 5.8 mph9.3 kmh 30.01 in1016.3 mb - 0.00 in0.0 mm 0.01 in0.3 mm
09:30 PM 64.5°F18.1°C 62.5°F16.9°C 93% 2.3 mph SSE3.7 kmh SSE 2.3 mph3.7 kmh 30.02 in1016.6 mb - 0.00 in0.0 mm 0.01 in0.3 mm
09:20 PM 64.7°F18.2°C 62.3°F16.8°C 92% 3.5 mph SE5.6 kmh SE 3.5 mph5.6 kmh 30.03 in1016.9 mb - 0.00 in0.0 mm 0.01 in0.3 mm
09:10 PM 64.9°F18.3°C 62.5°F16.9°C 92% 3.5 mph SE5.6 kmh SE 5.8 mph9.3 kmh 30.02 in1016.6 mb - 0.00 in0.0 mm 0.01 in0.3 mm
09:00 PM 64.9°F18.3°C 62.2°F16.8°C 91% 2.3 mph S3.7 kmh S 6.9 mph11.1 kmh 30.03 in1016.9 mb - 0.00 in0.0 mm 0.01 in0.3 mm
08:50 PM 65.0°F18.3°C 62.3°F16.8°C 91% 2.3 mph SSE3.7 kmh SSE 5.8 mph9.3 kmh 30.03 in1016.9 mb - 0.00 in0.0 mm 0.01 in0.3 mm
08:40 PM 65.0°F18.3°C 62.0°F16.7°C 90% 3.5 mph S5.6 kmh S 5.8 mph9.3 kmh 30.03 in1016.9 mb - 0.00 in0.0 mm 0.01 in0.3 mm
08:30 PM 65.0°F18.3°C 62.0°F16.7°C 90% 2.3 mph SW3.7 kmh SW 2.3 mph3.7 kmh 30.04 in1017.3 mb - 0.00 in0.0 mm 0.01 in0.3 mm
08:20 PM 64.9°F18.3°C 61.9°F16.6°C 90% 3.5 mph SW5.6 kmh SW 3.5 mph5.6 kmh 30.04 in1017.3 mb - 0.00 in0.0 mm 0.01 in0.3 mm
08:10 PM 64.8°F18.2°C 61.5°F16.4°C 89% 4.6 mph SE7.4 kmh SE 6.9 mph11.1 kmh 30.04 in1017.3 mb - 0.00 in0.0 mm 0.01 in0.3 mm
08:00 PM 65.0°F18.3°C 61.4°F16.3°C 88% 3.5 mph SE5.6 kmh SE 5.8 mph9.3 kmh 30.05 in1017.6 mb - 0.00 in0.0 mm 0.01 in0.3 mm
07:50 PM 65.2°F18.4°C 61.3°F16.3°C 87% 3.5 mph S5.6 kmh S 5.8 mph9.3 kmh 30.05 in1017.6 mb - 0.00 in0.0 mm 0.01 in0.3 mm
07:40 PM 65.4°F18.6°C 61.5°F16.4°C 87% 3.5 mph WSW5.6 kmh WSW 6.9 mph11.1 kmh 30.05 in1017.6 mb - 0.00 in0.0 mm 0.01 in0.3 mm
07:30 PM 65.7°F18.7°C 61.4°F16.3°C 86% 4.6 mph S7.4 kmh S 2.3 mph3.7 kmh 30.05 in1017.6 mb - 0.00 in0.0 mm 0.01 in0.3 mm
07:20 PM 65.9°F18.8°C 61.2°F16.2°C 85% 1.2 mph SE1.9 kmh SE 3.5 mph5.6 kmh 30.05 in1017.6 mb - 0.00 in0.0 mm 0.01 in0.3 mm
07:10 PM 66.1°F18.9°C 61.4°F16.3°C 85% 4.6 mph WSW7.4 kmh WSW 8.1 mph13.0 kmh 30.05 in1017.6 mb - 0.00 in0.0 mm 0.01 in0.3 mm
07:00 PM 66.3°F19.1°C 61.0°F16.1°C 83% 4.6 mph SSE7.4 kmh SSE 6.9 mph11.1 kmh 30.05 in1017.6 mb - 0.00 in0.0 mm 0.01 in0.3 mm
06:50 PM 66.6°F19.2°C 61.0°F16.1°C 82% 1.2 mph S1.9 kmh S 3.5 mph5.6 kmh 30.06 in1017.9 mb - 0.00 in0.0 mm 0.01 in0.3 mm
06:40 PM 66.8°F19.3°C 60.8°F16.0°C 81% 3.5 mph SW5.6 kmh SW 5.8 mph9.3 kmh 30.06 in1017.9 mb - 0.00 in0.0 mm 0.01 in0.3 mm
06:30 PM 67.0°F19.4°C 60.3°F15.7°C 79% 3.5 mph S5.6 kmh S 10.4 mph16.7 kmh 30.06 in1017.9 mb - 0.00 in0.0 mm 0.01 in0.3 mm
06:20 PM 67.4°F19.7°C 60.3°F15.7°C 78% 4.6 mph SW7.4 kmh SW 9.2 mph14.8 kmh 30.06 in1017.9 mb - 0.00 in0.0 mm 0.01 in0.3 mm
06:10 PM 67.6°F19.8°C 60.2°F15.7°C 77% 3.5 mph SSE5.6 kmh SSE 8.1 mph13.0 kmh 30.06 in1017.9 mb - 0.00 in0.0 mm 0.01 in0.3 mm
06:00 PM 67.9°F19.9°C 60.1°F15.6°C 76% 4.6 mph S7.4 kmh S 16.1 mph25.9 kmh 30.06 in1017.9 mb - 0.00 in0.0 mm 0.01 in0.3 mm
05:50 PM 68.9°F20.5°C 60.3°F15.7°C 74% 3.5 mph SW5.6 kmh SW 6.9 mph11.1 kmh 30.07 in1018.3 mb - 0.00 in0.0 mm 0.01 in0.3 mm
05:40 PM 69.1°F20.6°C 60.8°F16.0°C 75% 3.5 mph SW5.6 kmh SW 2.3 mph3.7 kmh 30.07 in1018.3 mb - 0.00 in0.0 mm 0.01 in0.3 mm
05:30 PM 70.3°F21.3°C 60.0°F15.6°C 70% 8.1 mph SSW13.0 kmh SSW 11.5 mph18.5 kmh 30.07 in1018.3 mb - 0.00 in0.0 mm 0.01 in0.3 mm
05:20 PM 71.4°F21.9°C 61.5°F16.4°C 71% 3.5 mph SE5.6 kmh SE 5.8 mph9.3 kmh 30.07 in1018.3 mb - 0.00 in0.0 mm 0.01 in0.3 mm
05:10 PM 71.4°F21.9°C 59.5°F15.3°C 66% 4.6 mph SSE7.4 kmh SSE 5.8 mph9.3 kmh 30.08 in1018.6 mb - 0.00 in0.0 mm 0.01 in0.3 mm
05:00 PM 71.8°F22.1°C 60.3°F15.7°C 67% 2.3 mph SSE3.7 kmh SSE 2.3 mph3.7 kmh 30.09 in1019.0 mb - 0.00 in0.0 mm 0.01 in0.3 mm
04:50 PM 72.5°F22.5°C 60.4°F15.8°C 66% 3.5 mph SE5.6 kmh SE 3.5 mph5.6 kmh 30.09 in1019.0 mb - 0.00 in0.0 mm 0.01 in0.3 mm
04:40 PM 72.5°F22.5°C 61.3°F16.3°C 68% 5.8 mph WSW9.3 kmh WSW 9.2 mph14.8 kmh 30.09 in1019.0 mb - 0.00 in0.0 mm 0.01 in0.3 mm
04:30 PM 72.8°F22.7°C 60.8°F16.0°C 66% 5.8 mph S9.3 kmh S 13.8 mph22.2 kmh 30.09 in1019.0 mb - 0.00 in0.0 mm 0.01 in0.3 mm
04:20 PM 73.3°F22.9°C 60.8°F16.0°C 65% 6.9 mph SSW11.1 kmh SSW 9.2 mph14.8 kmh 30.10 in1019.3 mb - 0.00 in0.0 mm 0.01 in0.3 mm
04:10 PM 73.5°F23.1°C 61.0°F16.1°C 65% 3.5 mph WSW5.6 kmh WSW 5.8 mph9.3 kmh 30.10 in1019.3 mb - 0.00 in0.0 mm 0.01 in0.3 mm
04:00 PM 73.4°F23.0°C 60.5°F15.8°C 64% 4.6 mph SSW7.4 kmh SSW 5.8 mph9.3 kmh 30.11 in1019.6 mb - 0.00 in0.0 mm 0.01 in0.3 mm
03:50 PM 73.0°F22.8°C 60.1°F15.6°C 64% 4.6 mph S7.4 kmh S 6.9 mph11.1 kmh 30.10 in1019.3 mb - 0.00 in0.0 mm 0.01 in0.3 mm
03:40 PM 72.6°F22.6°C 58.8°F14.9°C 62% 6.9 mph WSW11.1 kmh WSW 10.4 mph16.7 kmh 30.10 in1019.3 mb - 0.00 in0.0 mm 0.01 in0.3 mm
03:30 PM 73.1°F22.8°C 58.4°F14.7°C 60% 5.8 mph S9.3 kmh S 15.0 mph24.1 kmh 30.11 in1019.6 mb - 0.00 in0.0 mm 0.01 in0.3 mm
03:20 PM 73.0°F22.8°C 58.7°F14.8°C 61% 3.5 mph SW5.6 kmh SW 11.5 mph18.5 kmh 30.11 in1019.6 mb - 0.00 in0.0 mm 0.01 in0.3 mm
03:10 PM 72.5°F22.5°C 57.8°F14.3°C 60% 5.8 mph S9.3 kmh S 8.1 mph13.0 kmh 30.11 in1019.6 mb - 0.00 in0.0 mm 0.01 in0.3 mm
03:00 PM 72.0°F22.2°C 56.9°F13.8°C 59% 8.1 mph SE13.0 kmh SE 11.5 mph18.5 kmh 30.11 in1019.6 mb - 0.00 in0.0 mm 0.01 in0.3 mm
02:50 PM 72.4°F22.4°C 57.2°F14.0°C 59% 6.9 mph S11.1 kmh S 11.5 mph18.5 kmh 30.11 in1019.6 mb - 0.00 in0.0 mm 0.01 in0.3 mm
02:40 PM 71.7°F22.1°C 57.1°F13.9°C 60% 5.8 mph S9.3 kmh S 9.2 mph14.8 kmh 30.11 in1019.6 mb - 0.00 in0.0 mm 0.01 in0.3 mm
02:30 PM 69.9°F21.1°C 57.2°F14.0°C 64% 4.6 mph S7.4 kmh S 3.5 mph5.6 kmh 30.10 in1019.3 mb - 0.01 in0.3 mm 0.01 in0.3 mm
02:20 PM 68.7°F20.4°C 55.2°F12.9°C 62% 5.8 mph SSE9.3 kmh SSE 10.4 mph16.7 kmh 30.11 in1019.6 mb - 0.01 in0.3 mm 0.01 in0.3 mm
02:10 PM 67.8°F19.9°C 55.6°F13.1°C 65% 4.6 mph SSE7.4 kmh SSE 8.1 mph13.0 kmh 30.12 in1020.0 mb - 0.01 in0.3 mm 0.01 in0.3 mm
02:00 PM 67.6°F19.8°C 56.7°F13.7°C 68% 2.3 mph SE3.7 kmh SE 3.5 mph5.6 kmh 30.12 in1020.0 mb - 0.01 in0.3 mm 0.01 in0.3 mm
01:50 PM 67.2°F19.6°C 56.3°F13.5°C 68% 1.2 mph SE1.9 kmh SE 2.3 mph3.7 kmh 30.13 in1020.3 mb - 0.01 in0.3 mm 0.01 in0.3 mm
01:40 PM 68.1°F20.1°C 57.1°F13.9°C 68% 3.5 mph SSE5.6 kmh SSE 5.8 mph9.3 kmh 30.13 in1020.3 mb - 0.01 in0.3 mm 0.01 in0.3 mm
01:30 PM 68.2°F20.1°C 56.9°F13.8°C 67% 4.6 mph SW7.4 kmh SW 5.8 mph9.3 kmh 30.13 in1020.3 mb - 0.00 in0.0 mm 0.00 in0.0 mm
01:20 PM 67.9°F19.9°C 56.9°F13.8°C 68% 4.6 mph S7.4 kmh S 6.9 mph11.1 kmh 30.13 in1020.3 mb - 0.00 in0.0 mm 0.00 in0.0 mm
01:10 PM 66.4°F19.1°C 57.9°F14.4°C 74% 4.6 mph SSE7.4 kmh SSE 5.8 mph9.3 kmh 30.14 in1020.7 mb - 0.00 in0.0 mm 0.00 in0.0 mm
01:00 PM 64.4°F18.0°C 56.3°F13.5°C 75% 2.3 mph ESE3.7 kmh ESE 2.3 mph3.7 kmh 30.15 in1021.0 mb - 0.00 in0.0 mm 0.00 in0.0 mm
12:50 PM 63.1°F17.3°C 56.2°F13.4°C 78% Calm Calm 6.9 mph11.1 kmh 30.15 in1021.0 mb - 0.00 in0.0 mm 0.00 in0.0 mm
12:40 PM 62.2°F16.8°C 55.2°F12.9°C 78% 3.5 mph SW5.6 kmh SW 3.5 mph5.6 kmh 30.15 in1021.0 mb - 0.00 in0.0 mm 0.00 in0.0 mm
12:00 PM 59.2°F15.1°C 54.0°F12.2°C 83% Calm Calm -- 30.17 in1021.7 mb - 0.00 in0.0 mm 0.00 in0.0 mm
11:50 AM 58.8°F14.9°C 53.0°F11.7°C 81% Calm Calm -- 30.16 in1021.3 mb - 0.00 in0.0 mm 0.00 in0.0 mm
11:40 AM 59.2°F15.1°C 53.3°F11.8°C 81% 2.3 mph SE3.7 kmh SE 2.3 mph3.7 kmh 30.17 in1021.7 mb - 0.00 in0.0 mm 0.00 in0.0 mm
11:30 AM 60.6°F15.9°C 53.3°F11.8°C 77% 2.3 mph NNE3.7 kmh NNE 2.3 mph3.7 kmh 30.19 in1022.4 mb - 0.00 in0.0 mm 0.00 in0.0 mm
11:20 AM 62.1°F16.7°C 51.8°F11.0°C 69% 4.6 mph WSW7.4 kmh WSW 9.2 mph14.8 kmh 30.17 in1021.7 mb - 0.00 in0.0 mm 0.00 in0.0 mm
11:10 AM 62.7°F17.1°C 52.0°F11.1°C 68% 2.3 mph S3.7 kmh S 8.1 mph13.0 kmh 30.15 in1021.0 mb - 0.00 in0.0 mm 0.00 in0.0 mm
11:00 AM 63.3°F17.4°C 51.3°F10.7°C 65% 1.2 mph SSW1.9 kmh SSW 3.5 mph5.6 kmh 30.16 in1021.3 mb - 0.00 in0.0 mm 0.00 in0.0 mm
10:50 AM 64.1°F17.8°C 52.5°F11.4°C 66% 2.3 mph SSW3.7 kmh SSW 5.8 mph9.3 kmh 30.16 in1021.3 mb - 0.00 in0.0 mm 0.00 in0.0 mm
10:40 AM 65.0°F18.3°C 51.2°F10.7°C 61% 5.8 mph S9.3 kmh S 5.8 mph9.3 kmh 30.17 in1021.7 mb - 0.00 in0.0 mm 0.00 in0.0 mm
10:30 AM 64.9°F18.3°C 52.4°F11.3°C 64% 4.6 mph NE7.4 kmh NE 11.5 mph18.5 kmh 30.17 in1021.7 mb - 0.00 in0.0 mm 0.00 in0.0 mm
10:20 AM 64.4°F18.0°C 52.4°F11.3°C 65% 2.3 mph WSW3.7 kmh WSW 9.2 mph14.8 kmh 30.17 in1021.7 mb - 0.00 in0.0 mm 0.00 in0.0 mm
10:10 AM 63.7°F17.6°C 52.5°F11.4°C 67% 2.3 mph SE3.7 kmh SE 5.8 mph9.3 kmh 30.16 in1021.3 mb - 0.00 in0.0 mm 0.00 in0.0 mm
10:00 AM 63.7°F17.6°C 51.3°F10.7°C 64% 3.5 mph SSW5.6 kmh SSW 8.1 mph13.0 kmh 30.18 in1022.0 mb - 0.00 in0.0 mm 0.00 in0.0 mm
09:50 AM 63.5°F17.5°C 52.8°F11.6°C 68% 4.6 mph SSE7.4 kmh SSE 5.8 mph9.3 kmh 30.17 in1021.7 mb - 0.00 in0.0 mm 0.00 in0.0 mm
09:40 AM 63.1°F17.3°C 52.0°F11.1°C 67% 2.3 mph SSW3.7 kmh SSW 2.3 mph3.7 kmh 30.18 in1022.0 mb - 0.00 in0.0 mm 0.00 in0.0 mm
09:30 AM 63.5°F17.5°C 51.6°F10.9°C 65% 4.6 mph SW7.4 kmh SW 8.1 mph13.0 kmh 30.18 in1022.0 mb - 0.00 in0.0 mm 0.00 in0.0 mm
09:20 AM 62.5°F16.9°C 51.4°F10.8°C 67% 4.6 mph SE7.4 kmh SE 5.8 mph9.3 kmh 30.17 in1021.7 mb - 0.00 in0.0 mm 0.00 in0.0 mm
09:10 AM 62.1°F16.7°C 51.8°F11.0°C 69% 3.5 mph ESE5.6 kmh ESE 9.2 mph14.8 kmh 30.17 in1021.7 mb - 0.00 in0.0 mm 0.00 in0.0 mm
09:00 AM 61.7°F16.5°C 51.8°F11.0°C 70% 2.3 mph SSE3.7 kmh SSE 5.8 mph9.3 kmh 30.17 in1021.7 mb - 0.00 in0.0 mm 0.00 in0.0 mm
08:50 AM 61.7°F16.5°C 51.5°F10.8°C 69% 4.6 mph SE7.4 kmh SE 9.2 mph14.8 kmh 30.17 in1021.7 mb - 0.00 in0.0 mm 0.00 in0.0 mm
08:40 AM 61.1°F16.2°C 51.6°F10.9°C 71% 2.3 mph S3.7 kmh S 5.8 mph9.3 kmh 30.16 in1021.3 mb - 0.00 in0.0 mm 0.00 in0.0 mm
08:30 AM 60.1°F15.6°C 51.4°F10.8°C 73% 5.8 mph SW9.3 kmh SW 9.2 mph14.8 kmh 30.15 in1021.0 mb - 0.00 in0.0 mm 0.00 in0.0 mm
08:20 AM 59.7°F15.4°C 51.8°F11.0°C 75% 6.9 mph SW11.1 kmh SW 15.0 mph24.1 kmh 30.15 in1021.0 mb - 0.00 in0.0 mm 0.00 in0.0 mm
08:10 AM 58.9°F14.9°C 51.7°F10.9°C 77% 2.3 mph S3.7 kmh S 5.8 mph9.3 kmh 30.15 in1021.0 mb - 0.00 in0.0 mm 0.00 in0.0 mm
08:00 AM 58.3°F14.6°C 51.8°F11.0°C 79% 3.5 mph E5.6 kmh E 2.3 mph3.7 kmh 30.15 in1021.0 mb - 0.00 in0.0 mm 0.00 in0.0 mm
07:50 AM 57.5°F14.2°C 51.7°F10.9°C 81% 3.5 mph S5.6 kmh S 2.3 mph3.7 kmh 30.15 in1021.0 mb - 0.00 in0.0 mm 0.00 in0.0 mm
07:40 AM 56.6°F13.7°C 52.5°F11.4°C 86% 3.5 mph E5.6 kmh E 2.3 mph3.7 kmh 30.14 in1020.7 mb - 0.00 in0.0 mm 0.00 in0.0 mm
07:30 AM 55.6°F13.1°C 52.1°F11.2°C 88% 1.2 mph SSW1.9 kmh SSW 2.3 mph3.7 kmh 30.13 in1020.3 mb - 0.00 in0.0 mm 0.00 in0.0 mm
07:20 AM 54.4°F12.4°C 51.8°F11.0°C 91% 4.6 mph SSE7.4 kmh SSE 5.8 mph9.3 kmh 30.13 in1020.3 mb - 0.00 in0.0 mm 0.00 in0.0 mm
07:10 AM 53.3°F11.8°C 51.6°F10.9°C 94% 4.6 mph S7.4 kmh S 8.1 mph13.0 kmh 30.14 in1020.7 mb - 0.00 in0.0 mm 0.00 in0.0 mm
07:00 AM 52.5°F11.4°C 51.7°F10.9°C 97% 2.3 mph SE3.7 kmh SE 2.3 mph3.7 kmh 30.13 in1020.3 mb - 0.00 in0.0 mm 0.00 in0.0 mm
06:50 AM 51.7°F10.9°C 50.9°F10.5°C 97% 2.3 mph SE3.7 kmh SE 2.3 mph3.7 kmh 30.13 in1020.3 mb - 0.00 in0.0 mm 0.00 in0.0 mm
06:40 AM 51.0°F10.6°C 50.2°F10.1°C 97% 2.3 mph E3.7 kmh E 8.1 mph13.0 kmh 30.13 in1020.3 mb - 0.00 in0.0 mm 0.00 in0.0 mm
06:30 AM 50.4°F10.2°C 49.6°F9.8°C 97% 1.2 mph N1.9 kmh N 2.3 mph3.7 kmh 30.13 in1020.3 mb - 0.00 in0.0 mm 0.00 in0.0 mm
06:20 AM 50.2°F10.1°C 49.4°F9.7°C 97% Calm Calm -- 30.13 in1020.3 mb - 0.00 in0.0 mm 0.00 in0.0 mm
06:10 AM 49.7°F9.8°C 48.9°F9.4°C 97% 1.2 mph N1.9 kmh N 2.3 mph3.7 kmh 30.12 in1020.0 mb - 0.00 in0.0 mm 0.00 in0.0 mm
06:00 AM 48.5°F9.2°C 47.7°F8.7°C 97% 3.5 mph ENE5.6 kmh ENE 2.3 mph3.7 kmh 30.12 in1020.0 mb - 0.00 in0.0 mm 0.00 in0.0 mm
05:50 AM 47.8°F8.8°C 47.0°F8.3°C 97% 1.2 mph E1.9 kmh E 2.3 mph3.7 kmh 30.13 in1020.3 mb - 0.00 in0.0 mm 0.00 in0.0 mm
05:40 AM 47.8°F8.8°C 47.0°F8.3°C 97% 1.2 mph E1.9 kmh E 2.3 mph3.7 kmh 30.13 in1020.3 mb - 0.00 in0.0 mm 0.00 in0.0 mm
05:30 AM 47.7°F8.7°C 46.9°F8.3°C 97% Calm Calm -- 30.12 in1020.0 mb - 0.00 in0.0 mm 0.00 in0.0 mm
05:20 AM 47.3°F8.5°C 46.5°F8.1°C 97% Calm Calm -- 30.12 in1020.0 mb - 0.00 in0.0 mm 0.00 in0.0 mm
05:10 AM 47.5°F8.6°C 46.7°F8.2°C 97% Calm Calm -- 30.12 in1020.0 mb - 0.00 in0.0 mm 0.00 in0.0 mm
05:00 AM 47.3°F8.5°C 46.5°F8.1°C 97% Calm Calm -- 30.12 in1020.0 mb - 0.00 in0.0 mm 0.00 in0.0 mm
04:50 AM 47.3°F8.5°C 46.5°F8.1°C 97% Calm Calm -- 30.11 in1019.6 mb - 0.00 in0.0 mm 0.00 in0.0 mm
04:40 AM 47.4°F8.6°C 46.6°F8.1°C 97% Calm Calm -- 30.11 in1019.6 mb - 0.00 in0.0 mm 0.00 in0.0 mm
04:30 AM 47.1°F8.4°C 46.3°F7.9°C 97% Calm Calm -- 30.11 in1019.6 mb - 0.00 in0.0 mm 0.00 in0.0 mm
04:20 AM 47.2°F8.4°C 46.4°F8.0°C 97% Calm Calm -- 30.11 in1019.6 mb - 0.00 in0.0 mm 0.00 in0.0 mm
04:10 AM 47.5°F8.6°C 46.7°F8.2°C 97% Calm Calm -- 30.12 in1020.0 mb - 0.00 in0.0 mm 0.00 in0.0 mm
04:00 AM 47.4°F8.6°C 46.6°F8.1°C 97% Calm Calm -- 30.11 in1019.6 mb - 0.00 in0.0 mm 0.00 in0.0 mm
03:50 AM 47.6°F8.7°C 46.8°F8.2°C 97% Calm Calm -- 30.11 in1019.6 mb - 0.00 in0.0 mm 0.00 in0.0 mm
03:40 AM 47.7°F8.7°C 46.9°F8.3°C 97% Calm Calm -- 30.11 in1019.6 mb - 0.00 in0.0 mm 0.00 in0.0 mm
03:30 AM 47.8°F8.8°C 47.0°F8.3°C 97% 2.3 mph E3.7 kmh E 2.3 mph3.7 kmh 30.11 in1019.6 mb - 0.00 in0.0 mm 0.00 in0.0 mm
03:20 AM 47.9°F8.8°C 47.1°F8.4°C 97% Calm Calm -- 30.11 in1019.6 mb - 0.00 in0.0 mm 0.00 in0.0 mm
03:10 AM 47.9°F8.8°C 47.1°F8.4°C 97% Calm Calm -- 30.10 in1019.3 mb - 0.00 in0.0 mm 0.00 in0.0 mm
03:00 AM 47.9°F8.8°C 47.1°F8.4°C 97% Calm Calm -- 30.10 in1019.3 mb - 0.00 in0.0 mm 0.00 in0.0 mm
02:50 AM 47.9°F8.8°C 47.1°F8.4°C 97% Calm Calm -- 30.10 in1019.3 mb - 0.00 in0.0 mm 0.00 in0.0 mm
02:40 AM 47.8°F8.8°C 47.0°F8.3°C 97% Calm Calm -- 30.10 in1019.3 mb - 0.00 in0.0 mm 0.00 in0.0 mm
02:30 AM 48.3°F9.1°C 47.5°F8.6°C 97% Calm Calm -- 30.09 in1019.0 mb - 0.00 in0.0 mm 0.00 in0.0 mm
02:20 AM 48.7°F9.3°C 47.9°F8.8°C 97% Calm Calm -- 30.09 in1019.0 mb - 0.00 in0.0 mm 0.00 in0.0 mm
02:10 AM 48.6°F9.2°C 47.8°F8.8°C 97% Calm Calm -- 30.09 in1019.0 mb - 0.00 in0.0 mm 0.00 in0.0 mm
02:00 AM 48.7°F9.3°C 47.9°F8.8°C 97% Calm Calm -- 30.10 in1019.3 mb - 0.00 in0.0 mm 0.00 in0.0 mm
01:50 AM 48.9°F9.4°C 48.1°F8.9°C 97% Calm Calm -- 30.10 in1019.3 mb - 0.00 in0.0 mm 0.00 in0.0 mm
01:40 AM 49.1°F9.5°C 48.3°F9.1°C 97% Calm Calm -- 30.11 in1019.6 mb - 0.00 in0.0 mm 0.00 in0.0 mm
01:30 AM 49.4°F9.7°C 48.6°F9.2°C 97% Calm Calm -- 30.11 in1019.6 mb - 0.00 in0.0 mm 0.00 in0.0 mm
01:20 AM 49.3°F9.6°C 48.5°F9.2°C 97% Calm Calm -- 30.11 in1019.6 mb - 0.00 in0.0 mm 0.00 in0.0 mm
01:10 AM 49.3°F9.6°C 48.5°F9.2°C 97% Calm Calm -- 30.11 in1019.6 mb - 0.00 in0.0 mm 0.00 in0.0 mm
01:00 AM 49.6°F9.8°C 48.8°F9.3°C 97% Calm Calm -- 30.11 in1019.6 mb - 0.00 in0.0 mm 0.00 in0.0 mm
12:50 AM 49.7°F9.8°C 48.9°F9.4°C 97% Calm Calm -- 30.12 in1020.0 mb - 0.00 in0.0 mm 0.00 in0.0 mm
12:40 AM 50.0°F10.0°C 48.6°F9.2°C 95% Calm Calm -- 30.12 in1020.0 mb - 0.00 in0.0 mm 0.00 in0.0 mm
12:30 AM 50.7°F10.4°C 48.4°F9.1°C 92% Calm Calm -- 30.12 in1020.0 mb - 0.00 in0.0 mm 0.00 in0.0 mm
12:20 AM 51.6°F10.9°C 48.5°F9.2°C 89% Calm Calm -- 30.12 in1020.0 mb - 0.00 in0.0 mm 0.00 in0.0 mm
12:10 AM 52.5°F11.4°C 49.6°F9.8°C 90% Calm Calm -- 30.12 in1020.0 mb - 0.00 in0.0 mm 0.00 in0.0 mm
12:00 AM 52.9°F11.6°C 49.7°F9.8°C 89% 1.2 mph S1.9 kmh S 1.2 mph1.9 kmh 30.12 in1020.0 mb - 0.00 in0.0 mm 0.00 in0.0 mm